createdAt,value
2017-11-11T00:00:17.194Z,6.48
2017-11-11T00:02:44.831Z,6.37
2017-11-11T00:05:12.414Z,6.40
2017-11-11T00:07:40.052Z,6.43
2017-11-11T00:10:07.628Z,6.45
2017-11-11T00:12:35.273Z,6.51
2017-11-11T00:15:02.882Z,6.47
2017-11-11T00:17:30.473Z,6.56
2017-11-11T00:19:58.125Z,6.51
2017-11-11T00:22:26.016Z,6.56
2017-11-11T00:24:53.657Z,6.50
2017-11-11T00:27:21.252Z,6.60
2017-11-11T00:29:48.847Z,6.65
2017-11-11T00:32:16.471Z,6.56
2017-11-11T00:34:44.058Z,6.76
2017-11-11T00:37:11.727Z,6.77
2017-11-11T00:39:39.313Z,6.67
2017-11-11T00:42:07.280Z,6.64
2017-11-11T00:44:34.926Z,6.75
2017-11-11T00:47:02.551Z,6.62
2017-11-11T00:49:30.215Z,6.57
2017-11-11T00:51:57.824Z,6.52
2017-11-11T00:54:25.458Z,6.54
2017-11-11T00:56:53.387Z,6.46
2017-11-11T00:59:20.987Z,6.34
2017-11-11T01:01:48.623Z,6.34
2017-11-11T01:04:17.098Z,6.31
2017-11-11T01:06:44.690Z,6.40
2017-11-11T01:09:12.314Z,6.36
2017-11-11T01:11:40.289Z,6.31
2017-11-11T01:14:07.947Z,6.28
2017-11-11T01:16:35.544Z,6.36
2017-11-11T01:19:03.160Z,6.39
2017-11-11T01:21:30.796Z,6.39
2017-11-11T01:23:58.381Z,6.28
2017-11-11T01:26:26.021Z,6.59
2017-11-11T01:28:53.685Z,6.51
2017-11-11T01:31:21.282Z,6.40
2017-11-11T01:33:48.975Z,6.36
2017-11-11T01:36:16.567Z,6.25
2017-11-11T01:38:44.199Z,6.29
2017-11-11T01:41:11.841Z,6.30
2017-11-11T01:43:39.445Z,6.17
2017-11-11T01:46:07.111Z,6.27
2017-11-11T01:48:34.716Z,6.29
2017-11-11T01:51:02.346Z,6.29
2017-11-11T01:53:29.916Z,6.29
2017-11-11T01:55:57.491Z,6.23
2017-11-11T01:58:25.122Z,6.19
2017-11-11T02:00:52.789Z,6.16
2017-11-11T02:03:20.454Z,6.20
2017-11-11T02:05:48.154Z,6.25
2017-11-11T02:08:16.026Z,6.18
2017-11-11T02:10:43.647Z,6.25
2017-11-11T02:13:11.233Z,6.19
2017-11-11T02:15:38.894Z,6.12
2017-11-11T02:18:06.531Z,6.16
2017-11-11T02:20:34.191Z,6.21
2017-11-11T02:23:01.823Z,6.19
2017-11-11T02:25:29.438Z,6.04
2017-11-11T02:27:57.079Z,5.97
2017-11-11T02:30:24.674Z,5.98
2017-11-11T02:32:52.286Z,6.08
2017-11-11T02:35:19.899Z,6.00
2017-11-11T02:37:47.507Z,6.09
2017-11-11T02:40:15.195Z,6.03
2017-11-11T02:42:42.808Z,6.03
2017-11-11T02:45:10.973Z,5.96
2017-11-11T02:47:38.841Z,6.01
2017-11-11T02:50:06.466Z,6.00
2017-11-11T02:52:34.160Z,6.09
2017-11-11T02:55:01.795Z,6.15
2017-11-11T02:57:29.430Z,6.10
2017-11-11T02:59:57.049Z,6.14
2017-11-11T03:02:24.633Z,6.13
2017-11-11T03:04:52.586Z,6.16
2017-11-11T03:07:20.198Z,6.11
2017-11-11T03:09:47.802Z,6.15
2017-11-11T03:12:15.447Z,6.13
2017-11-11T03:14:43.660Z,6.17
2017-11-11T03:17:11.337Z,6.14
2017-11-11T03:19:38.965Z,6.18
2017-11-11T03:22:06.846Z,6.08
2017-11-11T03:24:34.463Z,6.11
2017-11-11T03:27:02.046Z,6.11
2017-11-11T03:29:29.683Z,6.13
2017-11-11T03:31:57.269Z,6.14
2017-11-11T03:34:24.887Z,6.07
2017-11-11T03:36:52.817Z,6.08
2017-11-11T03:39:20.408Z,6.05
2017-11-11T03:41:48.052Z,6.16
2017-11-11T03:44:15.642Z,6.19
2017-11-11T03:46:43.227Z,6.25
2017-11-11T03:49:11.342Z,6.16
2017-11-11T03:51:38.930Z,6.20
2017-11-11T03:54:07.100Z,6.06
2017-11-11T03:56:34.693Z,6.11
2017-11-11T03:59:02.291Z,6.15
2017-11-11T04:01:29.913Z,6.22
2017-11-11T04:03:57.544Z,6.31
2017-11-11T04:06:25.166Z,6.35
2017-11-11T04:08:52.747Z,6.25
2017-11-11T04:11:20.724Z,6.27
2017-11-11T04:13:48.353Z,6.12
2017-11-11T04:16:16.255Z,6.31
2017-11-11T04:18:43.897Z,6.30
2017-11-11T04:21:11.475Z,6.26
2017-11-11T04:23:39.071Z,6.25
2017-11-11T04:26:06.692Z,6.14
2017-11-11T04:28:34.297Z,6.08
2017-11-11T04:31:01.914Z,6.08
2017-11-11T04:33:29.537Z,6.07
2017-11-11T04:35:57.118Z,6.10
2017-11-11T04:38:25.218Z,6.15
2017-11-11T04:40:52.814Z,6.17
2017-11-11T04:43:20.745Z,6.17
2017-11-11T04:45:48.342Z,6.17
2017-11-11T04:48:15.958Z,6.13
2017-11-11T04:50:43.563Z,6.18
2017-11-11T04:53:11.159Z,6.22
2017-11-11T04:55:38.795Z,6.23
2017-11-11T04:58:06.377Z,6.21
2017-11-11T05:00:33.975Z,6.19
2017-11-11T05:03:01.651Z,6.21
2017-11-11T05:05:29.241Z,6.18
2017-11-11T05:07:56.876Z,6.22
2017-11-11T05:10:24.738Z,6.28
2017-11-11T05:12:52.327Z,6.28
2017-11-11T05:15:19.956Z,6.21
2017-11-11T05:17:47.558Z,6.32
2017-11-11T05:20:15.191Z,6.25
2017-11-11T05:22:42.778Z,6.23
2017-11-11T05:25:10.366Z,6.17
2017-11-11T05:27:37.994Z,6.18
2017-11-11T05:30:05.573Z,6.18
2017-11-11T05:32:33.199Z,6.13
2017-11-11T05:35:00.780Z,6.13
2017-11-11T05:37:28.372Z,6.12
2017-11-11T05:39:56.282Z,6.14
2017-11-11T05:42:23.869Z,6.08
2017-11-11T05:44:51.542Z,6.13
2017-11-11T05:47:19.187Z,6.13
2017-11-11T05:49:46.778Z,6.07
2017-11-11T05:52:15.017Z,6.06
2017-11-11T05:54:42.899Z,6.04
2017-11-11T05:57:10.550Z,6.04
2017-11-11T05:59:38.329Z,6.03
2017-11-11T06:02:06.281Z,6.09
2017-11-11T06:04:34.353Z,6.07
2017-11-11T06:07:01.938Z,6.03
2017-11-11T06:09:29.538Z,6.02
2017-11-11T06:11:57.146Z,5.99
2017-11-11T06:14:24.748Z,6.14
2017-11-11T06:16:52.356Z,5.99
2017-11-11T06:19:20.003Z,5.99
2017-11-11T06:21:47.594Z,6.01
2017-11-11T06:24:15.445Z,5.99
2017-11-11T06:26:43.070Z,6.02
2017-11-11T06:29:10.659Z,5.92
2017-11-11T06:31:38.241Z,5.88
2017-11-11T06:34:05.860Z,5.97
2017-11-11T06:36:33.578Z,5.91
2017-11-11T06:39:01.223Z,5.83
2017-11-11T06:41:29.330Z,5.81
2017-11-11T06:43:56.924Z,5.62
2017-11-11T06:46:24.575Z,5.73
2017-11-11T06:48:52.197Z,5.76
2017-11-11T06:51:19.870Z,5.76
2017-11-11T06:53:48.022Z,5.68
2017-11-11T06:56:15.618Z,5.75
2017-11-11T06:58:43.275Z,5.67
2017-11-11T07:01:10.893Z,5.69
2017-11-11T07:03:38.512Z,5.69
2017-11-11T07:06:06.126Z,5.68
2017-11-11T07:08:33.749Z,5.69
2017-11-11T07:11:01.408Z,5.70
2017-11-11T07:13:29.049Z,5.71
2017-11-11T07:15:56.694Z,5.74
2017-11-11T07:18:24.282Z,5.78
2017-11-11T07:20:51.890Z,5.78
2017-11-11T07:23:19.506Z,5.77
2017-11-11T07:25:47.182Z,5.83
2017-11-11T07:28:14.814Z,5.92
2017-11-11T07:30:42.408Z,6.03
2017-11-11T07:33:10.009Z,6.19
2017-11-11T07:35:37.727Z,6.28
2017-11-11T07:38:05.357Z,6.31
2017-11-11T07:40:32.988Z,6.38
2017-11-11T07:43:00.578Z,6.49
2017-11-11T07:45:28.192Z,6.59
2017-11-11T07:47:55.868Z,6.31
2017-11-11T07:50:23.457Z,6.26
2017-11-11T07:52:51.146Z,6.23
2017-11-11T07:55:18.983Z,6.17
2017-11-11T07:57:46.601Z,6.07
2017-11-11T08:00:14.276Z,6.04
2017-11-11T08:02:41.898Z,6.09
2017-11-11T08:05:09.583Z,6.17
2017-11-11T08:07:37.193Z,6.22
2017-11-11T08:10:04.810Z,6.33
2017-11-11T08:12:32.474Z,6.30
2017-11-11T08:15:00.102Z,6.40
2017-11-11T08:17:27.736Z,6.23
2017-11-11T08:19:55.350Z,6.23
2017-11-11T08:22:22.995Z,6.26
2017-11-11T08:24:50.621Z,6.37
2017-11-11T08:27:18.819Z,6.49
2017-11-11T08:29:48.555Z,6.41
2017-11-11T08:32:16.395Z,6.35
2017-11-11T08:34:43.988Z,6.47
2017-11-11T08:37:11.635Z,6.56
2017-11-11T08:39:39.234Z,6.59
2017-11-11T08:42:07.184Z,6.55
2017-11-11T08:44:34.838Z,6.57
2017-11-11T08:47:02.452Z,6.65
2017-11-11T08:49:30.098Z,6.59
2017-11-11T08:51:57.703Z,6.60
2017-11-11T08:54:25.663Z,6.68
2017-11-11T08:56:53.292Z,6.66
2017-11-11T08:59:20.926Z,6.59
2017-11-11T09:01:48.861Z,6.65
2017-11-11T09:04:16.726Z,6.60
2017-11-11T09:06:44.357Z,6.56
2017-11-11T09:09:11.959Z,6.55
2017-11-11T09:11:39.562Z,6.61
2017-11-11T09:14:07.248Z,6.67
2017-11-11T09:16:34.842Z,6.68
2017-11-11T09:19:02.540Z,6.73
2017-11-11T09:21:30.141Z,6.87
2017-11-11T09:24:03.332Z,6.93
2017-11-11T09:26:32.708Z,6.79
2017-11-11T09:29:00.369Z,6.82
2017-11-11T09:31:28.021Z,6.79
2017-11-11T09:33:55.645Z,6.81
2017-11-11T09:36:23.288Z,6.91
2017-11-11T09:38:50.941Z,7.03
2017-11-11T09:41:18.541Z,6.97
2017-11-11T09:43:46.169Z,6.99
2017-11-11T09:46:13.763Z,6.93
2017-11-11T09:48:41.396Z,6.88
2017-11-11T09:51:09.013Z,6.87
2017-11-11T09:53:36.625Z,6.86
2017-11-11T09:56:04.313Z,6.81
2017-11-11T09:58:31.923Z,6.78
2017-11-11T10:00:59.553Z,6.77
2017-11-11T10:03:27.301Z,6.79
2017-11-11T10:05:54.938Z,6.81
2017-11-11T10:08:22.584Z,6.91
2017-11-11T10:10:50.344Z,6.97
2017-11-11T10:13:18.374Z,7.14
2017-11-11T10:15:46.002Z,7.26
2017-11-11T10:18:13.674Z,7.24
2017-11-11T10:20:42.175Z,7.29
2017-11-11T10:23:09.780Z,7.38
2017-11-11T10:25:37.377Z,7.52
2017-11-11T10:28:04.995Z,7.48
2017-11-11T10:30:32.594Z,7.45
2017-11-11T10:33:00.571Z,7.34
2017-11-11T10:35:28.187Z,7.17
2017-11-11T10:37:55.912Z,7.18
2017-11-11T10:40:23.567Z,7.09
2017-11-11T10:42:51.174Z,7.00
2017-11-11T10:45:18.893Z,7.02
2017-11-11T10:47:46.519Z,7.00
2017-11-11T10:50:14.117Z,7.10
2017-11-11T10:52:41.746Z,7.06
2017-11-11T10:55:09.387Z,7.03
2017-11-11T10:57:37.045Z,7.14
2017-11-11T11:00:05.012Z,7.12
2017-11-11T11:02:32.668Z,7.26
2017-11-11T11:05:00.359Z,7.36
2017-11-11T11:07:28.393Z,7.36
2017-11-11T11:09:56.056Z,7.43
2017-11-11T11:12:23.715Z,7.34
2017-11-11T11:14:51.335Z,7.32
2017-11-11T11:17:18.984Z,7.14
2017-11-11T11:19:46.632Z,7.26
2017-11-11T11:22:14.275Z,7.25
2017-11-11T11:24:41.943Z,7.23
2017-11-11T11:27:09.991Z,7.36
2017-11-11T11:29:37.664Z,7.25
2017-11-11T11:32:05.259Z,7.29
2017-11-11T11:34:33.209Z,7.17
2017-11-11T11:37:00.821Z,7.15
2017-11-11T11:39:28.527Z,7.15
2017-11-11T11:41:56.162Z,7.14
2017-11-11T11:44:23.749Z,7.21
2017-11-11T11:46:51.436Z,7.18
2017-11-11T11:49:19.040Z,7.21
2017-11-11T11:51:46.634Z,7.26
2017-11-11T11:54:14.294Z,7.46
2017-11-11T11:56:42.881Z,7.50
2017-11-11T11:59:10.613Z,7.63
2017-11-11T12:01:38.514Z,7.62
2017-11-11T12:04:06.286Z,7.79
2017-11-11T12:06:33.913Z,7.61
2017-11-11T12:09:01.667Z,7.55
2017-11-11T12:11:30.526Z,7.58
2017-11-11T12:13:58.274Z,7.60
2017-11-11T12:16:25.884Z,7.74
2017-11-11T12:18:53.523Z,7.89
2017-11-11T12:21:21.135Z,7.88
2017-11-11T12:23:48.845Z,7.72
2017-11-11T12:26:16.455Z,7.95
2017-11-11T12:28:44.128Z,7.99
2017-11-11T12:31:11.767Z,7.89
2017-11-11T12:33:39.971Z,7.75
2017-11-11T12:36:08.046Z,7.76
2017-11-11T12:38:35.666Z,7.73
2017-11-11T12:41:03.284Z,7.66
2017-11-11T12:43:31.445Z,7.67
2017-11-11T12:46:00.075Z,7.92
2017-11-11T12:48:27.715Z,8.10
2017-11-11T12:50:55.921Z,8.09
2017-11-11T12:53:23.538Z,7.99
2017-11-11T12:55:51.230Z,7.87
2017-11-11T12:58:18.834Z,7.96
2017-11-11T13:00:46.469Z,7.95
2017-11-11T13:03:14.135Z,7.96
2017-11-11T13:05:41.764Z,7.90
2017-11-11T13:08:09.457Z,7.88
2017-11-11T13:10:37.106Z,7.90
2017-11-11T13:13:04.754Z,7.84
2017-11-11T13:15:32.380Z,7.76
2017-11-11T13:18:00.042Z,7.77
2017-11-11T13:20:27.743Z,7.75
2017-11-11T13:22:55.446Z,7.72
2017-11-11T13:25:23.115Z,7.70
2017-11-11T13:27:51.135Z,7.66
2017-11-11T13:30:18.738Z,7.63
2017-11-11T13:32:46.408Z,7.67
2017-11-11T13:35:14.007Z,7.57
2017-11-11T13:37:41.633Z,7.55
2017-11-11T13:40:09.339Z,7.47
2017-11-11T13:42:36.926Z,7.35
2017-11-11T13:45:04.877Z,7.39
2017-11-11T13:47:32.530Z,7.31
2017-11-11T13:50:00.121Z,7.28
2017-11-11T13:52:28.058Z,7.11
2017-11-11T13:54:55.689Z,7.15
2017-11-11T13:57:23.283Z,7.11
2017-11-11T13:59:51.253Z,7.13
2017-11-11T14:02:18.865Z,7.18
2017-11-11T14:04:46.537Z,7.14
2017-11-11T14:07:14.128Z,7.01
2017-11-11T14:09:41.998Z,6.99
2017-11-11T14:12:09.623Z,7.03
2017-11-11T14:14:37.218Z,7.04
2017-11-11T14:17:04.875Z,7.09
2017-11-11T14:19:32.459Z,7.05
2017-11-11T14:22:00.043Z,7.01
2017-11-11T14:24:27.983Z,6.95
2017-11-11T14:26:55.565Z,7.00
2017-11-11T14:29:23.237Z,7.04
2017-11-11T14:31:50.840Z,7.04
2017-11-11T14:34:18.735Z,6.98
2017-11-11T14:36:46.359Z,6.97
2017-11-11T14:39:13.959Z,6.96
2017-11-11T14:41:42.334Z,7.02
2017-11-11T14:44:09.939Z,6.97
2017-11-11T14:46:37.550Z,6.98
2017-11-11T14:49:05.197Z,6.99
2017-11-11T14:51:33.099Z,6.98
2017-11-11T14:54:01.082Z,6.96
2017-11-11T14:56:28.678Z,6.93
2017-11-11T14:58:56.270Z,6.87
2017-11-11T15:01:24.158Z,6.90
2017-11-11T15:03:52.021Z,6.88
2017-11-11T15:06:19.671Z,6.89
2017-11-11T15:08:47.287Z,6.89
2017-11-11T15:11:14.884Z,6.79
2017-11-11T15:13:42.510Z,6.88
2017-11-11T15:16:10.111Z,6.89
2017-11-11T15:18:38.005Z,6.81
2017-11-11T15:21:05.874Z,6.79
2017-11-11T15:23:33.492Z,6.76
2017-11-11T15:26:01.449Z,6.81
2017-11-11T15:28:29.374Z,6.78
2017-11-11T15:30:57.258Z,6.78
2017-11-11T15:33:24.995Z,6.82
2017-11-11T15:35:52.592Z,6.82
2017-11-11T15:38:20.226Z,6.86
2017-11-11T15:40:47.810Z,6.85
2017-11-11T15:43:15.484Z,6.86
2017-11-11T15:45:43.530Z,6.82
2017-11-11T15:48:12.724Z,6.77
2017-11-11T15:50:40.366Z,6.79
2017-11-11T15:53:07.995Z,6.71
2017-11-11T15:55:35.650Z,6.64
2017-11-11T15:58:03.289Z,6.69
2017-11-11T16:00:30.909Z,6.64
2017-11-11T16:02:58.766Z,6.65
2017-11-11T16:05:26.359Z,6.66
2017-11-11T16:07:53.989Z,6.70
2017-11-11T16:10:21.894Z,6.79
2017-11-11T16:12:49.502Z,6.64
2017-11-11T16:15:17.169Z,6.71
2017-11-11T16:17:44.781Z,6.67
2017-11-11T16:20:12.757Z,6.66
2017-11-11T16:22:40.350Z,6.55
2017-11-11T16:25:07.952Z,6.61
2017-11-11T16:27:35.564Z,6.52
2017-11-11T16:30:03.149Z,6.43
2017-11-11T16:32:31.079Z,6.36
2017-11-11T16:34:58.702Z,6.38
2017-11-11T16:37:26.287Z,6.39
2017-11-11T16:39:53.895Z,6.44
2017-11-11T16:42:21.530Z,6.47
2017-11-11T16:44:49.164Z,6.48
2017-11-11T16:47:16.779Z,6.48
2017-11-11T16:49:44.716Z,6.48
2017-11-11T16:52:12.357Z,6.48
2017-11-11T16:54:39.942Z,6.57
2017-11-11T16:57:07.617Z,6.50
2017-11-11T16:59:35.262Z,6.34
2017-11-11T17:02:02.846Z,6.42
2017-11-11T17:04:30.456Z,6.44
2017-11-11T17:06:58.040Z,6.46
2017-11-11T17:09:25.681Z,6.46
2017-11-11T17:11:53.791Z,6.42
2017-11-11T17:14:21.449Z,6.39
2017-11-11T17:16:49.079Z,6.38
2017-11-11T17:19:16.975Z,6.38
2017-11-11T17:21:44.686Z,6.38
2017-11-11T17:24:12.313Z,6.39
2017-11-11T17:26:40.166Z,6.30
2017-11-11T17:29:07.819Z,6.27
2017-11-11T17:31:35.410Z,6.27
2017-11-11T17:34:03.034Z,6.25
2017-11-11T17:36:30.634Z,6.21
2017-11-11T17:38:58.266Z,6.11
2017-11-11T17:41:25.885Z,6.16
2017-11-11T17:43:53.481Z,6.12
2017-11-11T17:46:21.106Z,6.07
2017-11-11T17:48:49.051Z,6.04
2017-11-11T17:51:16.641Z,5.99
2017-11-11T17:53:44.261Z,5.97
2017-11-11T17:56:11.854Z,5.93
2017-11-11T17:58:39.490Z,5.95
2017-11-11T18:01:07.373Z,5.99
2017-11-11T18:03:34.973Z,5.92
2017-11-11T18:06:02.605Z,5.94
2017-11-11T18:08:30.207Z,5.90
2017-11-11T18:10:57.850Z,5.95
2017-11-11T18:13:25.477Z,6.00
2017-11-11T18:15:53.101Z,6.03
2017-11-11T18:18:20.729Z,6.12
2017-11-11T18:20:48.333Z,6.18
2017-11-11T18:23:16.022Z,6.16
2017-11-11T18:25:43.610Z,6.10
2017-11-11T18:28:11.206Z,6.03
2017-11-11T18:30:38.817Z,6.07
2017-11-11T18:33:06.915Z,6.05
2017-11-11T18:35:34.579Z,5.91
2017-11-11T18:38:02.274Z,5.93
2017-11-11T18:40:29.872Z,5.87
2017-11-11T18:42:57.512Z,5.82
2017-11-11T18:45:25.109Z,5.85
2017-11-11T18:47:52.732Z,5.88
2017-11-11T18:50:20.330Z,5.95
2017-11-11T18:52:47.914Z,5.86
2017-11-11T18:55:15.534Z,5.93
2017-11-11T18:57:43.113Z,5.95
2017-11-11T19:00:10.785Z,6.11
2017-11-11T19:02:38.385Z,6.20
2017-11-11T19:05:05.989Z,6.04
2017-11-11T19:07:33.754Z,6.01
2017-11-11T19:10:01.340Z,6.20
2017-11-11T19:12:28.999Z,6.17
2017-11-11T19:14:56.590Z,6.09
2017-11-11T19:17:24.190Z,6.06
2017-11-11T19:19:51.832Z,6.13
2017-11-11T19:22:19.433Z,6.16
2017-11-11T19:24:47.071Z,6.11
2017-11-11T19:27:14.921Z,6.13
2017-11-11T19:29:42.627Z,6.19
2017-11-11T19:32:10.369Z,6.24
2017-11-11T19:34:37.979Z,6.36
2017-11-11T19:37:05.640Z,6.23
2017-11-11T19:39:33.225Z,6.15
2017-11-11T19:42:00.809Z,6.13
2017-11-11T19:44:28.439Z,6.10
2017-11-11T19:46:56.036Z,6.01
2017-11-11T19:49:23.708Z,5.97
2017-11-11T19:51:51.340Z,6.00
2017-11-11T19:54:20.845Z,6.09
2017-11-11T19:56:48.534Z,6.19
2017-11-11T19:59:16.186Z,6.06
2017-11-11T20:01:43.857Z,5.98
2017-11-11T20:04:11.486Z,5.99
2017-11-11T20:06:39.087Z,5.99
2017-11-11T20:09:06.717Z,6.01
2017-11-11T20:11:34.300Z,5.89
2017-11-11T20:14:01.930Z,5.84
2017-11-11T20:16:29.550Z,5.90
2017-11-11T20:18:57.402Z,5.85
2017-11-11T20:21:25.015Z,5.80
2017-11-11T20:23:52.581Z,5.86
2017-11-11T20:26:20.210Z,5.94
2017-11-11T20:28:47.791Z,5.92
2017-11-11T20:31:15.454Z,5.97
2017-11-11T20:33:43.178Z,5.83
2017-11-11T20:36:10.801Z,5.74
2017-11-11T20:38:38.524Z,5.77
2017-11-11T20:41:06.137Z,5.74
2017-11-11T20:43:34.029Z,5.73
2017-11-11T20:46:01.753Z,5.73
2017-11-11T20:48:29.404Z,5.67
2017-11-11T20:50:57.003Z,5.65
2017-11-11T20:53:24.639Z,5.70
2017-11-11T20:55:52.301Z,5.63
2017-11-11T20:58:20.009Z,5.74
2017-11-11T21:00:47.669Z,5.78
2017-11-11T21:03:15.350Z,5.79
2017-11-11T21:05:43.756Z,5.78
2017-11-11T21:08:11.450Z,5.82
2017-11-11T21:10:39.084Z,5.74
2017-11-11T21:13:07.116Z,5.62
2017-11-11T21:15:34.726Z,5.66
2017-11-11T21:18:02.376Z,5.63
2017-11-11T21:20:30.020Z,5.55
2017-11-11T21:22:57.609Z,5.58
2017-11-11T21:25:25.244Z,5.57
2017-11-11T21:27:52.970Z,5.50
2017-11-11T21:30:20.578Z,5.51
2017-11-11T21:32:48.526Z,5.51
2017-11-11T21:35:16.126Z,5.49
2017-11-11T21:37:43.753Z,5.44
2017-11-11T21:40:11.351Z,5.48
2017-11-11T21:42:39.282Z,5.37
2017-11-11T21:45:06.890Z,5.52
2017-11-11T21:47:34.500Z,5.42
2017-11-11T21:50:02.204Z,5.50
2017-11-11T21:52:29.807Z,5.37
2017-11-11T21:54:57.405Z,5.39
2017-11-11T21:57:25.081Z,5.35
2017-11-11T21:59:52.725Z,5.42
2017-11-11T22:02:20.365Z,5.38
2017-11-11T22:04:48.309Z,5.41
2017-11-11T22:07:15.895Z,5.41
2017-11-11T22:09:43.785Z,5.54
2017-11-11T22:12:11.388Z,5.63
2017-11-11T22:14:39.020Z,5.62
2017-11-11T22:17:06.663Z,5.71
2017-11-11T22:19:34.642Z,5.73
2017-11-11T22:22:02.259Z,5.84
2017-11-11T22:24:29.978Z,5.81
2017-11-11T22:26:57.689Z,5.75
2017-11-11T22:29:25.347Z,5.83
2017-11-11T22:31:52.956Z,5.77
2017-11-11T22:34:20.731Z,5.69
2017-11-11T22:36:48.350Z,5.65
2017-11-11T22:39:15.993Z,5.63
2017-11-11T22:41:43.578Z,5.61
2017-11-11T22:44:11.176Z,5.75
2017-11-11T22:46:38.805Z,5.68
2017-11-11T22:49:06.410Z,5.85
2017-11-11T22:51:34.026Z,5.72
2017-11-11T22:54:01.634Z,5.71
2017-11-11T22:56:29.679Z,5.69
2017-11-11T22:58:57.299Z,5.59
2017-11-11T23:01:24.902Z,5.65
2017-11-11T23:03:52.537Z,5.57
2017-11-11T23:06:20.441Z,5.51
2017-11-11T23:08:48.022Z,5.50
2017-11-11T23:11:15.663Z,5.51
2017-11-11T23:13:43.255Z,5.44
2017-11-11T23:16:10.888Z,5.48
2017-11-11T23:18:38.501Z,5.52
2017-11-11T23:21:06.122Z,5.38
2017-11-11T23:23:34.087Z,5.57
2017-11-11T23:26:01.954Z,5.57
2017-11-11T23:28:29.599Z,5.41
2017-11-11T23:30:57.239Z,5.56
2017-11-11T23:33:24.850Z,5.52
2017-11-11T23:35:52.469Z,5.50
2017-11-11T23:38:20.108Z,5.42
2017-11-11T23:40:48.030Z,5.52
2017-11-11T23:43:15.650Z,5.52
2017-11-11T23:45:43.577Z,5.59
2017-11-11T23:48:11.177Z,5.64
2017-11-11T23:50:38.826Z,5.67
2017-11-11T23:53:06.495Z,5.66
2017-11-11T23:55:34.420Z,5.68
2017-11-11T23:58:02.056Z,5.74
